Time;durP1;ratioP1;P1;durP2;ratioP2;P2;SDS_P1;SDS_P2;PMS_P1;PMS_P2;Temp;Humidity;BMP_temperature;BMP_pressure;BME280_temperature;BME280_humidity;BME280_pressure;Samples;Min_cycle;Max_cycle;Signal;HPM_P1;HPM_P2
2022/01/03 00:01:06;;;;;;;1.80;0.75;;;18.90;61.60;;;;;;5052772;28;20017;-69
2022/01/03 00:03:31;;;;;;;2.83;1.10;;;18.90;61.60;;;;;;5035664;28;20036;-69
2022/01/03 00:05:57;;;;;;;2.97;1.05;;;18.90;61.50;;;;;;5036152;28;20028;-69
2022/01/03 00:08:23;;;;;;;1.88;0.90;;;18.90;61.50;;;;;;5052581;28;20029;-70
2022/01/03 00:10:48;;;;;;;1.30;0.77;;;18.90;61.60;;;;;;5052454;28;20360;-69
2022/01/03 00:13:14;;;;;;;2.42;1.00;;;18.90;61.60;;;;;;5035993;28;20052;-70
2022/01/03 00:15:40;;;;;;;2.00;0.95;;;18.90;61.60;;;;;;5019297;28;20025;-70
2022/01/03 00:18:05;;;;;;;3.72;0.90;;;18.90;61.70;;;;;;5053396;28;20029;-69
2022/01/03 00:20:31;;;;;;;2.00;0.88;;;18.90;61.70;;;;;;5053579;28;20491;-69
2022/01/03 00:23:00;;;;;;;2.70;0.90;;;18.90;61.70;;;;;;5052341;28;20029;-69
2022/01/03 00:25:26;;;;;;;2.10;0.90;;;18.90;61.80;;;;;;5048490;28;20045;-69
2022/01/03 00:28:02;;;;;;;2.17;0.90;;;18.90;61.80;;;;;;5032193;28;20033;-69
2022/01/03 00:30:28;;;;;;;3.75;1.33;;;18.90;61.90;;;;;;5032202;28;20025;-69
2022/01/03 00:32:54;;;;;;;1.23;0.68;;;18.80;61.70;;;;;;5031824;28;20029;-69
2022/01/03 00:35:19;;;;;;;3.63;0.80;;;18.80;61.80;;;;;;5033413;28;20026;-69
2022/01/03 00:37:46;;;;;;;2.55;0.77;;;18.80;61.70;;;;;;5036391;28;20395;-69
2022/01/03 00:40:13;;;;;;;1.15;0.80;;;18.80;61.80;;;;;;5053249;28;20035;-69
2022/01/03 00:42:39;;;;;;;2.03;0.80;;;18.80;61.90;;;;;;5051919;28;20024;-69
2022/01/03 00:45:05;;;;;;;1.55;0.70;;;18.80;61.90;;;;;;5052093;28;20021;-69
2022/01/03 00:47:32;;;;;;;1.50;0.90;;;18.80;61.90;;;;;;5052701;28;20029;-69
2022/01/03 00:49:59;;;;;;;1.58;1.00;;;18.80;61.90;;;;;;5035309;28;20016;-69
2022/01/03 00:52:24;;;;;;;2.35;1.25;;;18.80;62.00;;;;;;5051752;28;20025;-69
2022/01/03 00:54:50;;;;;;;1.58;1.00;;;18.80;61.90;;;;;;5052967;28;20029;-69
2022/01/03 00:57:23;;;;;;;1.67;0.90;;;18.80;61.90;;;;;;5053032;28;20047;-69
2022/01/03 00:59:50;;;;;;;;;;;18.80;62.00;;;;;;5052016;28;20387;-69
2022/01/03 01:02:16;;;;;;;1.77;0.75;;;18.80;62.30;;;;;;5051482;28;19982;-69
2022/01/03 01:04:44;;;;;;;1.88;0.88;;;18.70;62.30;;;;;;5050699;28;20036;-69
2022/01/03 01:07:09;;;;;;;2.45;1.25;;;18.80;62.30;;;;;;5034938;28;20024;-69
2022/01/03 01:09:35;;;;;;;2.08;0.77;;;18.80;62.30;;;;;;5051565;28;20087;-69
2022/01/03 01:12:01;;;;;;;1.23;0.68;;;18.80;62.30;;;;;;5052443;28;20099;-69
2022/01/03 01:14:28;;;;;;;2.67;1.20;;;18.80;62.30;;;;;;5052255;28;20102;-69
2022/01/03 01:16:53;;;;;;;2.47;0.90;;;18.80;62.30;;;;;;5052461;28;20021;-69
2022/01/03 01:19:22;;;;;;;2.42;1.13;;;18.80;62.30;;;;;;5051256;28;20032;-69
2022/01/03 01:21:49;;;;;;;2.92;1.00;;;18.80;62.30;;;;;;5034700;28;20028;-69
2022/01/03 01:24:16;;;;;;;2.05;1.00;;;18.80;62.30;;;;;;5051482;28;20387;-69
2022/01/03 01:29:27;;;;;;;1.92;0.80;;;18.80;62.30;;;;;;5031367;28;20028;-69
2022/01/03 01:31:54;;;;;;;1.70;0.90;;;18.80;62.40;;;;;;5031126;28;20022;-69
2022/01/03 01:34:26;;;;;;;1.95;1.10;;;18.80;62.40;;;;;;5031433;28;20022;-70
2022/01/03 01:36:53;;;;;;;;;;;18.80;62.40;;;;;;5031701;28;20096;-69
2022/01/03 01:39:19;;;;;;;1.63;0.88;;;18.70;62.60;;;;;;5048349;28;19917;-69
2022/01/03 01:41:45;;;;;;;2.17;1.00;;;18.70;62.70;;;;;;5018220;28;20475;-69
2022/01/03 01:44:12;;;;;;;1.52;0.75;;;18.70;62.60;;;;;;5034291;28;20036;-69
2022/01/03 01:46:48;;;;;;;3.65;1.13;;;18.70;62.50;;;;;;5034647;28;20098;-69
2022/01/03 01:49:18;;;;;;;2.85;0.82;;;18.80;62.60;;;;;;5034595;28;20052;-69
2022/01/03 01:51:49;;;;;;;4.28;0.93;;;18.70;62.60;;;;;;5034456;28;20108;-69
2022/01/03 01:54:17;;;;;;;3.00;0.95;;;18.80;62.60;;;;;;5050960;28;20013;-69
2022/01/03 01:57:03;;;;;;;2.00;0.90;;;18.80;62.60;;;;;;5052090;28;20023;-69
2022/01/03 01:59:41;;;;;;;1.13;0.80;;;18.70;62.60;;;;;;5051030;28;20033;-69
2022/01/03 02:02:08;;;;;;;2.20;1.00;;;18.80;62.70;;;;;;5051928;28;20574;-69
2022/01/03 02:04:46;;;;;;;1.45;0.65;;;18.70;62.70;;;;;;5052023;28;20502;-69
2022/01/03 02:07:11;;;;;;;1.88;0.80;;;18.80;62.70;;;;;;5051968;28;20031;-69
2022/01/03 02:09:41;;;;;;;1.52;0.70;;;18.70;62.70;;;;;;5052091;28;20021;-69
2022/01/03 02:12:16;;;;;;;1.42;0.90;;;18.80;62.70;;;;;;5050704;28;20070;-69
2022/01/03 02:14:42;;;;;;;2.28;1.00;;;18.70;62.70;;;;;;5050429;28;20479;-69
2022/01/03 02:17:08;;;;;;;2.03;0.60;;;18.70;62.70;;;;;;5037183;28;20021;-69
2022/01/03 02:19:37;;;;;;;1.42;0.82;;;18.70;62.70;;;;;;5054904;28;20506;-69
2022/01/03 02:22:03;;;;;;;1.63;0.88;;;18.70;62.70;;;;;;5037992;28;20120;-69
2022/01/03 02:24:28;;;;;;;2.65;0.80;;;18.70;62.70;;;;;;5037963;28;20108;-69
2022/01/03 02:26:54;;;;;;;1.48;0.80;;;18.70;62.80;;;;;;5038512;28;20094;-69
2022/01/03 02:29:20;;;;;;;3.05;1.10;;;18.70;62.70;;;;;;5035372;28;20053;-69
2022/01/03 02:31:46;;;;;;;1.42;0.88;;;18.70;62.80;;;;;;5035688;28;20116;-69
2022/01/03 02:34:11;;;;;;;1.15;0.90;;;18.70;62.70;;;;;;5018072;28;20537;-69
2022/01/03 02:36:37;;;;;;;3.85;1.00;;;18.70;62.80;;;;;;5035633;28;20120;-69
2022/01/03 02:39:03;;;;;;;1.95;0.90;;;18.70;62.80;;;;;;5048041;28;20037;-69
2022/01/03 02:41:28;;;;;;;1.63;0.80;;;18.70;62.80;;;;;;5055241;28;20043;-69
2022/01/03 02:43:54;;;;;;;1.70;1.08;;;18.70;62.80;;;;;;5054215;28;20476;-69
2022/01/03 02:46:20;;;;;;;1.73;0.80;;;18.70;62.80;;;;;;5055368;28;20029;-69
2022/01/03 02:48:46;;;;;;;2.03;1.10;;;18.70;62.80;;;;;;5037655;28;20021;-69
2022/01/03 02:51:12;;;;;;;2.88;1.15;;;18.70;62.90;;;;;;5055196;28;20426;-69
2022/01/03 02:53:38;;;;;;;1.95;0.88;;;18.70;62.90;;;;;;5054215;28;20017;-69
2022/01/03 02:56:04;;;;;;;2.53;0.93;;;18.70;62.90;;;;;;5054856;28;20029;-69
2022/01/03 02:58:30;;;;;;;2.45;1.23;;;18.70;62.90;;;;;;5037354;28;20028;-69
2022/01/03 03:00:56;;;;;;;2.90;0.98;;;18.70;63.00;;;;;;5055116;28;20021;-69
2022/01/03 03:03:22;;;;;;;2.78;1.08;;;18.70;63.00;;;;;;5053727;28;20029;-69
2022/01/03 03:05:47;;;;;;;1.55;0.80;;;18.60;63.00;;;;;;5037350;28;20031;-69
2022/01/03 03:08:13;;;;;;;1.65;0.80;;;18.70;63.00;;;;;;5053708;28;20068;-69
2022/01/03 03:10:39;;;;;;;2.25;0.88;;;18.70;63.00;;;;;;5053534;28;20107;-69
2022/01/03 03:13:05;;;;;;;1.83;0.98;;;18.70;63.00;;;;;;5053730;28;20550;-69
2022/01/03 03:15:31;;;;;;;2.13;0.80;;;18.70;63.00;;;;;;5054842;28;20100;-69
2022/01/03 03:17:57;;;;;;;1.30;0.85;;;18.70;63.00;;;;;;5053628;28;20036;-69
2022/01/03 03:20:25;;;;;;;1.85;0.93;;;18.70;63.00;;;;;;5053658;28;20107;-69
2022/01/03 03:22:51;;;;;;;2.28;1.10;;;18.70;63.10;;;;;;5037374;28;20033;-69
2022/01/03 03:25:19;;;;;;;1.38;0.80;;;18.70;63.10;;;;;;5050430;28;20538;-69
2022/01/03 03:27:47;;;;;;;2.55;1.00;;;18.70;63.10;;;;;;5032469;28;20484;-69
2022/01/03 03:30:12;;;;;;;1.30;0.80;;;18.70;63.10;;;;;;5017328;28;20026;-69
2022/01/03 03:32:38;;;;;;;1.75;0.90;;;18.70;63.10;;;;;;5034525;28;20538;-69
2022/01/03 03:35:04;;;;;;;1.88;0.85;;;18.70;63.10;;;;;;5033337;28;20021;-69
2022/01/03 03:37:29;;;;;;;2.28;0.95;;;18.70;63.10;;;;;;5035433;28;20036;-69
2022/01/03 03:39:55;;;;;;;2.35;1.10;;;18.70;63.20;;;;;;5052745;28;20096;-69
2022/01/03 03:42:21;;;;;;;1.65;0.85;;;18.70;63.20;;;;;;5054359;28;20028;-69
2022/01/03 03:44:46;;;;;;;1.42;0.73;;;18.70;63.30;;;;;;5054338;28;20051;-69
2022/01/03 03:47:12;;;;;;;2.20;0.80;;;18.70;63.20;;;;;;5052977;28;20025;-68
2022/01/03 03:49:37;;;;;;;2.40;0.88;;;18.60;63.30;;;;;;5036617;28;20025;-69
2022/01/03 03:52:04;;;;;;;4.05;1.10;;;18.70;63.40;;;;;;5054058;28;20047;-69
2022/01/03 03:54:29;;;;;;;1.73;0.90;;;18.70;63.30;;;;;;5052626;28;20094;-69
2022/01/03 03:56:57;;;;;;;2.10;0.80;;;18.70;63.40;;;;;;5053066;28;20437;-69
2022/01/03 03:59:23;;;;;;;1.48;0.65;;;18.70;63.40;;;;;;5052784;28;20017;-69
2022/01/03 04:01:49;;;;;;;1.05;0.70;;;18.60;63.30;;;;;;5019780;28;20025;-69
2022/01/03 04:04:15;;;;;;;1.98;1.00;;;18.60;63.40;;;;;;5052562;28;20086;-69
2022/01/03 04:06:41;;;;;;;2.88;0.82;;;18.70;63.40;;;;;;5054083;28;20487;-69
2022/01/03 04:09:06;;;;;;;2.72;0.80;;;18.70;63.40;;;;;;5052111;28;20029;-69
2022/01/03 04:11:32;;;;;;;2.10;0.77;;;18.70;63.40;;;;;;5036086;28;20041;-69
2022/01/03 04:13:58;;;;;;;1.27;0.80;;;18.70;63.50;;;;;;5052535;28;20391;-69
2022/01/03 04:16:23;;;;;;;2.03;0.80;;;18.70;63.50;;;;;;5052391;28;20395;-69
2022/01/03 04:18:49;;;;;;;1.00;0.70;;;18.60;63.50;;;;;;5053748;28;20387;-69
2022/01/03 04:21:15;;;;;;;2.35;0.77;;;18.60;63.50;;;;;;5053456;28;20040;-68
2022/01/03 04:23:40;;;;;;;1.30;0.70;;;18.60;63.50;;;;;;5052206;28;20022;-69
2022/01/03 04:26:06;;;;;;;1.38;0.75;;;18.60;63.50;;;;;;5043780;28;20415;-69
2022/01/03 04:28:31;;;;;;;1.98;0.68;;;18.60;63.60;;;;;;5033712;28;20030;-69
2022/01/03 04:30:57;;;;;;;1.58;0.73;;;18.60;63.60;;;;;;5032457;28;20025;-69
2022/01/03 04:33:23;;;;;;;4.25;1.13;;;18.60;63.70;;;;;;5043620;28;20105;-69
2022/01/03 04:35:48;;;;;;;2.70;0.90;;;18.60;63.70;;;;;;5044776;28;20111;-69
2022/01/03 04:38:14;;;;;;;1.98;0.90;;;18.60;63.70;;;;;;5042274;28;20025;-69
2022/01/03 04:40:40;;;;;;;1.38;0.80;;;18.60;63.60;;;;;;5052480;28;20029;-69
2022/01/03 04:43:06;;;;;;;2.15;0.73;;;18.60;63.70;;;;;;5018150;28;20057;-69
2022/01/03 04:45:32;;;;;;;1.15;0.55;;;18.60;63.70;;;;;;5030792;28;20488;-69
2022/01/03 04:47:57;;;;;;;2.72;1.35;;;18.60;63.70;;;;;;5040976;28;20112;-69
2022/01/03 04:50:23;;;;;;;2.00;0.70;;;18.60;63.70;;;;;;5048899;28;20021;-69
2022/01/03 04:52:49;;;;;;;2.15;0.90;;;18.60;63.70;;;;;;5048027;28;20025;-68
2022/01/03 04:55:14;;;;;;;1.95;0.90;;;18.60;63.80;;;;;;5041398;28;21547;-69
2022/01/03 04:57:40;;;;;;;2.00;0.88;;;18.60;63.80;;;;;;5042761;28;20503;-69
2022/01/03 05:00:07;;;;;;;2.60;0.80;;;18.60;63.80;;;;;;5035944;28;20492;-69
2022/01/03 05:02:32;;;;;;;1.98;1.00;;;18.60;63.80;;;;;;5047547;28;20391;-69
2022/01/03 05:04:58;;;;;;;3.03;0.80;;;18.60;63.80;;;;;;5039295;28;20033;-69
2022/01/03 05:07:24;;;;;;;1.25;0.77;;;18.60;64.00;;;;;;5023706;28;20029;-68
2022/01/03 05:09:49;;;;;;;2.03;0.73;;;18.60;63.90;;;;;;5045927;28;20029;-69
2022/01/03 05:12:17;;;;;;;2.08;0.85;;;18.60;63.90;;;;;;5036253;28;20022;-69
2022/01/03 05:14:43;;;;;;;1.95;0.98;;;18.60;63.90;;;;;;5046652;28;20076;-69
2022/01/03 05:17:08;;;;;;;2.42;0.95;;;18.60;63.90;;;;;;5014808;28;20049;-68
2022/01/03 05:19:34;;;;;;;1.58;0.80;;;18.60;64.00;;;;;;5031384;28;20495;-69
2022/01/03 05:22:00;;;;;;;2.25;1.08;;;18.60;64.00;;;;;;5030334;28;20026;-69
2022/01/03 05:24:25;;;;;;;1.50;0.85;;;18.60;64.00;;;;;;5032164;28;20021;-69
2022/01/03 05:26:51;;;;;;;3.00;1.13;;;18.60;64.00;;;;;;5032684;28;20021;-69
2022/01/03 05:29:16;;;;;;;1.40;0.77;;;18.60;64.00;;;;;;5031134;28;20057;-69
2022/01/03 05:31:42;;;;;;;1.27;0.65;;;18.60;64.00;;;;;;5032323;28;20077;-69
2022/01/03 05:34:08;;;;;;;1.20;0.65;;;18.60;64.00;;;;;;5032329;28;20029;-69
2022/01/03 05:36:34;;;;;;;1.10;0.60;;;18.60;64.00;;;;;;5032146;28;20419;-69
2022/01/03 05:38:59;;;;;;;1.30;0.77;;;18.60;64.10;;;;;;5044597;28;20514;-69
2022/01/03 05:41:25;;;;;;;1.95;0.80;;;18.60;64.10;;;;;;5051139;28;20063;-69
2022/01/03 05:43:52;;;;;;;1.60;0.70;;;18.60;64.10;;;;;;5050966;28;20029;-69
2022/01/03 05:46:18;;;;;;;1.05;0.65;;;18.60;64.10;;;;;;5034685;28;20099;-69
2022/01/03 05:48:43;;;;;;;1.75;0.65;;;18.60;64.10;;;;;;5051107;28;20154;-69
2022/01/03 05:51:09;;;;;;;3.15;0.82;;;18.60;64.10;;;;;;5050172;28;20025;-69
2022/01/03 05:53:34;;;;;;;1.73;0.80;;;18.60;64.20;;;;;;5052259;28;20079;-68
2022/01/03 05:56:00;;;;;;;1.95;0.60;;;18.60;64.20;;;;;;5052167;28;20052;-69
2022/01/03 05:58:26;;;;;;;1.17;0.70;;;18.60;64.20;;;;;;5050768;28;20484;-69
2022/01/03 06:00:52;;;;;;;2.88;1.02;;;18.60;64.20;;;;;;5034551;28;20021;-69
2022/01/03 06:03:21;;;;;;;2.70;0.73;;;18.60;64.20;;;;;;5052196;28;20491;-69
2022/01/03 06:08:22;;;;;;;1.48;0.75;;;18.60;64.30;;;;;;5051958;28;20464;-69
2022/01/03 06:10:47;;;;;;;0.93;0.50;;;18.50;64.20;;;;;;5050867;28;20021;-69
2022/01/03 06:13:14;;;;;;;1.45;0.85;;;18.60;64.30;;;;;;5034223;28;20407;-69
2022/01/03 06:15:40;;;;;;;0.68;0.60;;;18.60;64.30;;;;;;5050588;28;20021;-69
2022/01/03 06:18:14;;;;;;;1.73;0.82;;;18.50;64.20;;;;;;5034277;28;20107;-69
2022/01/03 06:20:43;;;;;;;1.63;0.70;;;18.50;64.30;;;;;;5034248;28;20025;-69
2022/01/03 06:23:09;;;;;;;1.83;0.73;;;18.60;64.30;;;;;;5034571;28;20029;-69
2022/01/03 06:25:35;;;;;;;2.20;0.70;;;18.50;64.30;;;;;;5045466;28;20095;-69
2022/01/03 06:28:00;;;;;;;1.67;0.60;;;18.60;64.50;;;;;;5030619;28;20412;-69
2022/01/03 06:30:26;;;;;;;1.33;0.68;;;18.60;64.40;;;;;;5031599;28;20054;-69
2022/01/03 06:32:52;;;;;;;1.50;0.73;;;18.50;64.30;;;;;;5030927;28;20017;-68
2022/01/03 06:35:18;;;;;;;1.50;0.73;;;18.50;64.40;;;;;;5030270;28;20459;-69
2022/01/03 06:37:44;;;;;;;2.58;0.60;;;18.60;64.40;;;;;;5033248;28;20411;-69
2022/01/03 06:40:09;;;;;;;1.15;0.63;;;18.50;64.40;;;;;;5035471;28;20037;-69
2022/01/03 06:42:35;;;;;;;1.08;0.70;;;18.50;64.40;;;;;;5036841;28;20025;-69
2022/01/03 06:45:01;;;;;;;1.25;0.65;;;18.50;64.50;;;;;;5044484;28;20449;-68
2022/01/03 06:47:26;;;;;;;1.38;0.65;;;18.50;64.40;;;;;;5040582;28;20041;-69
2022/01/03 06:49:53;;;;;;;1.35;0.90;;;18.50;64.50;;;;;;5046999;28;20022;-69
2022/01/03 06:52:18;;;;;;;0.93;0.60;;;18.50;64.50;;;;;;5038854;28;20021;-69
2022/01/03 06:54:44;;;;;;;1.00;0.57;;;18.60;64.50;;;;;;5037963;28;20026;-69
2022/01/03 06:57:10;;;;;;;1.42;0.75;;;18.50;64.50;;;;;;5047074;28;20048;-70
2022/01/03 06:59:35;;;;;;;1.20;0.63;;;18.60;64.60;;;;;;5033427;28;20029;-70
2022/01/03 07:02:01;;;;;;;0.80;0.57;;;18.50;64.50;;;;;;5027516;28;20049;-71
2022/01/03 07:04:27;;;;;;;1.95;0.80;;;18.50;64.50;;;;;;5042213;28;20095;-71
2022/01/03 07:06:52;;;;;;;0.63;0.55;;;18.50;64.40;;;;;;5040756;28;20030;-70
2022/01/03 07:09:18;;;;;;;1.75;0.60;;;18.60;64.40;;;;;;5045262;28;20434;-70
2022/01/03 07:11:43;;;;;;;1.52;0.70;;;18.60;64.40;;;;;;5045272;28;20029;-70
2022/01/03 07:19:34;;;;;;;1.23;0.60;;;18.50;64.40;;;;;;5039984;28;20091;-70
2022/01/03 07:22:02;;;;;;;1.08;0.75;;;18.50;64.40;;;;;;5047888;28;20053;-70
2022/01/03 07:24:29;;;;;;;1.20;0.70;;;18.50;64.20;;;;;;5033382;28;20030;-70
2022/01/03 07:26:55;;;;;;;1.65;0.80;;;18.50;64.20;;;;;;5038199;28;20025;-70
2022/01/03 07:29:20;;;;;;;1.17;0.70;;;18.60;64.30;;;;;;5044699;28;20399;-70
2022/01/03 07:31:46;;;;;;;1.15;0.50;;;18.50;64.20;;;;;;5045774;28;20025;-70
2022/01/03 07:34:11;;;;;;;1.48;0.70;;;18.50;64.10;;;;;;5038002;28;20076;-71
2022/01/03 07:36:37;;;;;;;3.47;0.80;;;18.50;64.10;;;;;;5036432;28;20091;-70
2022/01/03 07:39:03;;;;;;;0.90;0.68;;;18.60;64.10;;;;;;5028339;28;20094;-70
2022/01/03 07:41:29;;;;;;;1.27;0.65;;;18.60;64.10;;;;;;5045027;28;20034;-71
2022/01/03 07:43:55;;;;;;;2.17;0.70;;;18.60;64.10;;;;;;5046932;28;20026;-69
2022/01/03 07:46:20;;;;;;;2.03;0.85;;;18.60;64.10;;;;;;5036386;28;20105;-68
2022/01/03 07:48:46;;;;;;;3.13;1.00;;;18.50;64.00;;;;;;5032647;28;20025;-68
2022/01/03 07:51:12;;;;;;;3.80;1.33;;;18.50;64.00;;;;;;5034122;28;20025;-68
2022/01/03 07:53:37;;;;;;;4.60;1.75;;;18.60;64.10;;;;;;5033638;28;20079;-68
2022/01/03 07:56:05;;;;;;;3.90;1.23;;;18.60;64.10;;;;;;5034118;28;20032;-68
2022/01/03 07:58:31;;;;;;;6.07;1.70;;;18.60;64.10;;;;;;5032873;28;20026;-68
2022/01/03 08:00:56;;;;;;;7.93;1.80;;;18.60;64.10;;;;;;5033665;28;20553;-68
2022/01/03 08:03:23;;;;;;;3.45;1.30;;;18.60;64.20;;;;;;5016313;28;20485;-68
2022/01/03 08:05:48;;;;;;;5.80;1.48;;;18.60;64.10;;;;;;5032705;28;20079;-68
2022/01/03 08:08:14;;;;;;;5.38;1.63;;;18.70;64.10;;;;;;5039092;28;20017;-68
2022/01/03 08:10:41;;;;;;;5.32;1.88;;;18.60;64.10;;;;;;5044970;28;20098;-68
2022/01/03 08:13:07;;;;;;;3.08;1.38;;;18.60;64.10;;;;;;5038268;28;20541;-68
2022/01/03 08:15:32;;;;;;;4.43;1.60;;;18.60;64.00;;;;;;5032072;28;20100;-68
2022/01/03 08:17:58;;;;;;;5.53;1.65;;;18.60;64.00;;;;;;5052551;28;20025;-68
2022/01/03 08:20:25;;;;;;;5.95;1.42;;;18.70;64.10;;;;;;5053677;28;20039;-68
2022/01/03 08:22:51;;;;;;;5.22;1.33;;;18.70;64.10;;;;;;5053708;28;20047;-68
2022/01/03 08:25:17;;;;;;;5.53;1.40;;;18.70;64.10;;;;;;5042199;28;20107;-69
2022/01/03 08:27:43;;;;;;;2.83;1.00;;;18.70;64.10;;;;;;5032156;28;20120;-68
2022/01/03 08:30:09;;;;;;;3.75;1.35;;;18.70;64.10;;;;;;5032227;28;20022;-68
2022/01/03 08:32:34;;;;;;;6.00;1.73;;;18.70;64.10;;;;;;5033399;28;20039;-68
2022/01/03 08:35:00;;;;;;;6.20;1.50;;;18.70;64.10;;;;;;5033805;28;20032;-68
2022/01/03 08:37:25;;;;;;;3.25;1.20;;;18.70;64.10;;;;;;5033379;28;20029;-68
2022/01/03 08:39:51;;;;;;;4.57;1.30;;;18.60;64.00;;;;;;5033256;28;20034;-68
2022/01/03 08:42:18;;;;;;;4.32;1.33;;;18.70;64.10;;;;;;5042616;28;20482;-68
2022/01/03 08:44:44;;;;;;;4.43;1.40;;;18.70;64.00;;;;;;5052591;28;20434;-68
2022/01/03 08:47:10;;;;;;;3.17;1.35;;;18.70;64.00;;;;;;5051981;28;20032;-68
2022/01/03 08:49:35;;;;;;;3.20;1.60;;;18.70;64.00;;;;;;5051964;28;20021;-68
2022/01/03 08:52:01;;;;;;;3.15;1.25;;;18.70;64.00;;;;;;5053107;28;20017;-68
2022/01/03 08:54:27;;;;;;;4.53;1.35;;;18.70;64.00;;;;;;5035499;28;20025;-68
2022/01/03 08:56:53;;;;;;;3.28;1.33;;;18.70;64.00;;;;;;5053046;28;20013;-69
2022/01/03 08:59:18;;;;;;;2.75;1.20;;;18.70;64.00;;;;;;5052637;28;20064;-68
2022/01/03 09:01:44;;;;;;;3.50;1.17;;;18.70;64.00;;;;;;5051664;28;20110;-68
2022/01/03 09:04:09;;;;;;;4.03;1.35;;;18.70;64.00;;;;;;5052841;28;20025;-68
2022/01/03 09:06:35;;;;;;;4.22;1.65;;;18.70;63.90;;;;;;5052687;28;20025;-68
2022/01/03 09:09:02;;;;;;;3.25;1.25;;;18.70;63.90;;;;;;5038403;28;20038;-68
2022/01/03 09:11:28;;;;;;;3.25;1.00;;;18.70;63.90;;;;;;5031544;28;20487;-68
2022/01/03 09:13:53;;;;;;;3.80;1.20;;;18.70;63.90;;;;;;5032489;28;20033;-68
2022/01/03 09:16:19;;;;;;;1.77;1.05;;;18.70;63.80;;;;;;5040023;28;20021;-68
2022/01/03 09:18:44;;;;;;;3.40;1.30;;;18.70;63.80;;;;;;5052482;28;20025;-68
2022/01/03 09:21:10;;;;;;;1.98;0.93;;;18.70;63.80;;;;;;5051540;28;20021;-68
2022/01/03 09:23:40;;;;;;;3.42;1.20;;;18.70;63.80;;;;;;5051352;28;20032;-68
2022/01/03 09:28:53;;;;;;;1.83;1.05;;;18.70;63.80;;;;;;5051062;28;20122;-69
2022/01/03 09:31:36;;;;;;;3.03;1.38;;;18.70;63.80;;;;;;5035197;28;20029;-68
2022/01/03 09:34:03;;;;;;;3.42;1.27;;;18.70;63.70;;;;;;5051136;28;20025;-68
2022/01/03 09:36:29;;;;;;;1.30;0.80;;;18.60;63.70;;;;;;5051112;28;20127;-68
2022/01/03 09:38:55;;;;;;;2.13;0.90;;;18.70;63.70;;;;;;5051003;28;20112;-68
2022/01/03 09:41:22;;;;;;;2.33;1.30;;;18.70;64.70;;;;;;5052208;28;20025;-68
2022/01/03 09:43:51;;;;;;;2.25;1.20;;;18.70;63.70;;;;;;5051709;28;20086;-68
2022/01/03 09:46:33;;;;;;;2.58;1.30;;;18.60;63.70;;;;;;5051117;28;20028;-68
2022/01/03 09:48:59;;;;;;;3.03;1.00;;;18.70;63.60;;;;;;5035796;28;20113;-68
2022/01/03 09:51:29;;;;;;;4.32;1.27;;;18.60;63.60;;;;;;5051121;28;20108;-68
2022/01/03 09:53:56;;;;;;;3.03;1.02;;;18.70;63.70;;;;;;5050873;28;20048;-68
2022/01/03 09:56:22;;;;;;;2.75;1.23;;;18.60;63.60;;;;;;5050908;28;20491;-68
2022/01/03 09:58:48;;;;;;;2.03;1.00;;;18.60;63.60;;;;;;5033768;28;20026;-68
2022/01/03 10:01:14;;;;;;;1.38;0.90;;;18.60;63.60;;;;;;5052126;28;20037;-68
2022/01/03 10:03:47;;;;;;;2.58;1.38;;;18.60;63.50;;;;;;5034181;28;20036;-68
2022/01/03 10:06:15;;;;;;;2.15;0.95;;;18.60;63.50;;;;;;5051043;28;20025;-68
2022/01/03 10:08:40;;;;;;;1.75;0.95;;;18.70;63.50;;;;;;5039188;28;20060;-68
2022/01/03 10:11:06;;;;;;;3.05;1.35;;;18.70;63.50;;;;;;5030645;28;20057;-68
2022/01/03 10:13:32;;;;;;;1.95;1.27;;;18.70;64.50;;;;;;5031054;28;20021;-68
2022/01/03 10:15:57;;;;;;;2.13;1.00;;;18.70;63.50;;;;;;5036047;28;20033;-68
2022/01/03 10:18:23;;;;;;;2.08;0.90;;;18.60;63.40;;;;;;5051957;28;20185;-69
2022/01/03 10:20:49;;;;;;;2.17;0.88;;;18.60;63.40;;;;;;5051908;28;20029;-68
2022/01/03 10:23:16;;;;;;;3.40;1.00;;;18.60;63.40;;;;;;5050767;28;20032;-68
2022/01/03 10:25:42;;;;;;;1.92;0.93;;;18.70;63.40;;;;;;5051256;28;20073;-68
2022/01/03 10:28:08;;;;;;;1.40;0.80;;;18.60;63.40;;;;;;5050507;28;20033;-68
2022/01/03 10:30:41;;;;;;;3.10;1.00;;;18.70;63.40;;;;;;5052037;28;20078;-68
2022/01/03 10:33:08;;;;;;;3.08;0.90;;;18.70;63.40;;;;;;5051829;28;20491;-68
2022/01/03 10:35:38;;;;;;;3.40;0.98;;;18.60;63.30;;;;;;5050595;28;20391;-69
2022/01/03 10:38:04;;;;;;;3.53;1.10;;;18.70;63.40;;;;;;5053430;28;20027;-68
2022/01/03 10:40:31;;;;;;;2.17;1.00;;;18.60;63.30;;;;;;5037445;28;20033;-68
2022/01/03 10:42:57;;;;;;;1.67;0.75;;;18.60;63.30;;;;;;5055370;28;20074;-68
2022/01/03 10:45:28;;;;;;;1.58;0.88;;;18.70;63.30;;;;;;5055427;28;20033;-68
2022/01/03 10:47:53;;;;;;;2.13;0.63;;;18.70;63.30;;;;;;5037650;28;20017;-68
2022/01/03 10:50:19;;;;;;;1.88;0.80;;;18.70;63.30;;;;;;5054278;28;20029;-68
2022/01/03 10:52:46;;;;;;;2.00;0.80;;;18.70;63.30;;;;;;5054178;28;20507;-68
2022/01/03 10:55:16;;;;;;;2.13;0.88;;;18.70;64.30;;;;;;5054899;28;20040;-68
2022/01/03 10:57:55;;;;;;;2.08;0.88;;;18.70;63.20;;;;;;5054002;28;20059;-69
2022/01/03 11:00:29;;;;;;;3.03;1.02;;;18.70;63.30;;;;;;5055271;28;20102;-68
2022/01/03 11:03:12;;;;;;;2.05;0.90;;;18.70;63.20;;;;;;5055009;28;20025;-68
2022/01/03 11:05:38;;;;;;;2.40;0.90;;;18.70;63.20;;;;;;5055066;28;20025;-68
2022/01/03 11:10:44;;;;;;;1.98;1.10;;;18.60;63.20;;;;;;5033744;28;20476;-68
2022/01/03 11:13:22;;;;;;;1.77;0.80;;;18.70;63.20;;;;;;5033906;28;20057;-68
2022/01/03 11:15:55;;;;;;;1.98;0.90;;;18.70;63.10;;;;;;5038934;28;20070;-68
2022/01/03 11:18:24;;;;;;;3.08;1.10;;;18.70;63.20;;;;;;5053807;28;20495;-68
2022/01/03 11:21:24;;;;;;;1.20;0.60;;;18.60;63.20;;;;;;5053602;28;20071;-68
2022/01/03 11:23:59;;;;;;;2.00;0.80;;;18.70;63.00;;;;;;5051343;28;20041;-68
2022/01/03 11:26:24;;;;;;;1.55;0.70;;;18.70;63.20;;;;;;5054583;28;20119;-68
2022/01/03 11:28:50;;;;;;;1.73;0.90;;;18.60;63.20;;;;;;5053303;28;20392;-68
2022/01/03 11:31:17;;;;;;;1.67;0.90;;;18.60;63.20;;;;;;5036668;28;20025;-68
2022/01/03 11:33:43;;;;;;;1.77;0.68;;;18.60;63.10;;;;;;5054684;28;20025;-68
2022/01/03 11:36:09;;;;;;;1.23;0.82;;;18.70;63.20;;;;;;5036905;28;20086;-68
2022/01/03 11:38:36;;;;;;;1.60;0.82;;;18.70;63.10;;;;;;5053150;28;20071;-68
2022/01/03 11:41:04;;;;;;;1.73;0.70;;;18.60;63.00;;;;;;5053161;28;20029;-68
2022/01/03 11:43:30;;;;;;;1.50;0.80;;;18.70;63.10;;;;;;5036826;28;20024;-68
2022/01/03 11:45:56;;;;;;;1.25;0.82;;;18.70;63.10;;;;;;5053049;28;20040;-68
2022/01/03 11:48:22;;;;;;;2.10;0.77;;;18.70;63.10;;;;;;5053591;28;20022;-69
2022/01/03 11:50:50;;;;;;;1.73;0.88;;;18.70;63.10;;;;;;5053065;28;20100;-68
2022/01/03 11:53:20;;;;;;;1.95;0.80;;;18.70;63.10;;;;;;5052465;28;20474;-68
2022/01/03 11:55:49;;;;;;;1.25;0.75;;;18.70;63.10;;;;;;5036903;28;20462;-68
2022/01/03 11:58:28;;;;;;;1.27;0.63;;;18.70;63.10;;;;;;5037046;28;20025;-68
2022/01/03 12:03:51;;;;;;;1.63;0.75;;;18.70;63.00;;;;;;5053051;28;20036;-69
2022/01/03 12:06:32;;;;;;;1.63;0.80;;;18.60;63.00;;;;;;5036525;28;20037;-68
2022/01/03 12:09:04;;;;;;;1.13;0.77;;;18.70;63.10;;;;;;5038665;28;20037;-68
2022/01/03 12:11:30;;;;;;;0.80;0.63;;;18.60;63.00;;;;;;5032847;28;20025;-68
2022/01/03 12:13:56;;;;;;;1.20;0.80;;;18.60;63.00;;;;;;5032663;28;20028;-68
2022/01/03 12:17:10;;;;;;;1.38;0.70;;;18.70;63.10;;;;;;5042654;28;20036;-68
2022/01/03 12:19:40;;;;;;;1.40;0.68;;;18.70;62.80;;;;;;5038462;28;20086;-68
2022/01/03 12:22:21;;;;;;;1.30;0.73;;;18.70;63.00;;;;;;5052204;28;20029;-69
2022/01/03 12:24:51;;;;;;;1.35;0.70;;;18.70;63.00;;;;;;5052443;28;20061;-68
2022/01/03 12:27:16;;;;;;;1.40;0.70;;;18.70;63.00;;;;;;5053386;28;20025;-68
2022/01/03 12:29:54;;;;;;;1.10;0.75;;;18.70;63.00;;;;;;5053449;28;20031;-69
2022/01/03 12:32:34;;;;;;;0.98;0.60;;;18.70;62.90;;;;;;5053655;28;20066;-69
2022/01/03 12:35:20;;;;;;;1.50;0.80;;;18.70;63.00;;;;;;5052247;28;20027;-69
2022/01/03 12:37:52;;;;;;;1.25;0.60;;;18.70;62.90;;;;;;5052989;28;20052;-68
2022/01/03 12:40:27;;;;;;;0.75;0.60;;;18.70;63.00;;;;;;5053438;28;20028;-68
2022/01/03 12:42:58;;;;;;;1.20;0.60;;;18.70;63.00;;;;;;5052283;28;20098;-68
2022/01/03 12:45:29;;;;;;;1.27;0.50;;;18.70;63.00;;;;;;5053232;28;20044;-68
2022/01/03 12:48:10;;;;;;;1.17;0.70;;;18.70;63.00;;;;;;5053155;28;20524;-68
2022/01/03 12:50:40;;;;;;;1.25;0.50;;;18.70;62.80;;;;;;5052658;28;20495;-68
2022/01/03 12:53:32;;;;;;;0.88;0.52;;;18.70;63.00;;;;;;5051889;28;20025;-68
2022/01/03 12:56:02;;;;;;;1.55;0.77;;;18.70;62.70;;;;;;5052751;28;20025;-68
2022/01/03 12:58:27;;;;;;;0.95;0.50;;;18.70;63.00;;;;;;5053070;28;20029;-68
2022/01/03 13:00:57;;;;;;;1.25;0.70;;;18.70;63.00;;;;;;5052834;28;20082;-68
2022/01/03 13:03:26;;;;;;;1.40;0.60;;;18.70;62.90;;;;;;5052883;28;20029;-68
2022/01/03 13:06:11;;;;;;;0.93;0.40;;;18.70;62.90;;;;;;5052485;28;20079;-68
2022/01/03 13:08:48;;;;;;;1.05;0.57;;;18.70;62.70;;;;;;5041981;28;20029;-68